createdAt,value
2022-08-28T00:00:38.868Z,23.40
2022-08-28T00:03:07.407Z,23.40
2022-08-28T00:05:36.176Z,23.40
2022-08-28T00:08:04.888Z,23.40
2022-08-28T00:10:34.571Z,23.40
2022-08-28T00:13:03.406Z,23.40
2022-08-28T00:15:34.868Z,23.30
2022-08-28T00:18:04.027Z,23.30
2022-08-28T00:20:33.393Z,23.30
2022-08-28T00:23:01.860Z,23.30
2022-08-28T00:25:31.591Z,23.30
2022-08-28T00:28:05.207Z,23.30
2022-08-28T00:30:35.871Z,23.30
2022-08-28T00:33:06.705Z,23.30
2022-08-28T00:35:36.290Z,23.30
2022-08-28T00:38:06.046Z,23.30
2022-08-28T00:40:35.556Z,23.30
2022-08-28T00:43:07.831Z,23.30
2022-08-28T00:45:39.866Z,23.20
2022-08-28T00:48:08.644Z,23.20
2022-08-28T00:50:51.936Z,23.20
2022-08-28T00:53:23.455Z,23.20
2022-08-28T00:55:53.613Z,23.20
2022-08-28T00:58:23.221Z,23.20
2022-08-28T01:00:51.637Z,23.20
2022-08-28T01:03:19.746Z,23.20
2022-08-28T01:05:53.460Z,23.20
2022-08-28T01:08:21.692Z,23.10
2022-08-28T01:10:55.273Z,23.10
2022-08-28T01:13:26.836Z,23.10
2022-08-28T01:15:56.138Z,23.10
2022-08-28T01:18:24.688Z,23.10
2022-08-28T01:20:59.179Z,23.10
2022-08-28T01:23:44.729Z,23.00
2022-08-28T01:26:13.268Z,23.00
2022-08-28T01:28:42.036Z,23.00
2022-08-28T01:31:11.978Z,23.00
2022-08-28T01:33:42.592Z,22.90
2022-08-28T01:36:12.589Z,22.90
2022-08-28T01:38:42.321Z,22.90
2022-08-28T01:41:13.905Z,22.90
2022-08-28T01:43:42.872Z,22.90
2022-08-28T01:48:43.295Z,22.80
2022-08-28T01:53:41.701Z,22.80
2022-08-28T01:56:16.754Z,22.80
2022-08-28T01:58:45.078Z,22.80
2022-08-28T02:01:14.564Z,22.70
2022-08-28T02:06:14.528Z,22.70
2022-08-28T02:08:42.652Z,22.70
2022-08-28T02:11:11.002Z,22.70
2022-08-28T02:13:41.224Z,22.70
2022-08-28T02:16:11.529Z,22.70
2022-08-28T02:18:39.933Z,22.70
2022-08-28T02:21:09.240Z,22.60
2022-08-28T02:23:39.419Z,22.60
2022-08-28T02:26:07.887Z,22.60
2022-08-28T02:28:36.463Z,22.60
2022-08-28T02:31:08.420Z,22.50
2022-08-28T02:33:38.324Z,22.50
2022-08-28T02:36:08.519Z,22.50
2022-08-28T02:38:36.875Z,22.50
2022-08-28T02:41:05.826Z,22.50
2022-08-28T02:43:34.105Z,22.50
2022-08-28T02:46:02.382Z,22.50
2022-08-28T02:48:33.218Z,22.50
2022-08-28T02:51:02.890Z,22.50
2022-08-28T02:53:31.723Z,22.50
2022-08-28T02:56:02.969Z,22.50
2022-08-28T02:58:32.226Z,22.40
2022-08-28T03:01:01.806Z,22.40
2022-08-28T03:03:32.517Z,22.40
2022-08-28T03:06:01.324Z,22.40
2022-08-28T03:08:30.168Z,22.40
2022-08-28T03:10:58.343Z,22.40
2022-08-28T03:13:27.518Z,22.30
2022-08-28T03:15:56.294Z,22.30
2022-08-28T03:18:25.630Z,22.30
2022-08-28T03:20:56.631Z,22.30
2022-08-28T03:23:26.643Z,22.40
2022-08-28T03:25:55.661Z,22.40
2022-08-28T03:28:23.851Z,22.40
2022-08-28T03:30:52.124Z,22.30
2022-08-28T03:33:20.324Z,22.30
2022-08-28T03:35:48.889Z,22.30
2022-08-28T03:38:19.197Z,22.30
2022-08-28T03:40:48.417Z,22.30
2022-08-28T03:43:19.187Z,22.20
2022-08-28T03:45:56.580Z,22.20
2022-08-28T03:48:25.125Z,22.20
2022-08-28T03:50:54.313Z,22.20
2022-08-28T03:53:26.282Z,22.20
2022-08-28T03:55:54.705Z,22.20
2022-08-28T03:58:23.691Z,22.20
2022-08-28T04:00:52.052Z,22.20
2022-08-28T04:03:20.537Z,22.20
2022-08-28T04:05:49.058Z,22.20
2022-08-28T04:08:19.978Z,22.20
2022-08-28T04:10:49.662Z,22.20
2022-08-28T04:13:19.678Z,22.20
2022-08-28T04:15:57.017Z,22.20
2022-08-28T04:18:25.195Z,22.20
2022-08-28T04:20:59.941Z,22.20
2022-08-28T04:23:28.194Z,22.20
2022-08-28T04:25:57.705Z,22.10
2022-08-28T04:28:26.955Z,22.20
2022-08-28T04:30:56.660Z,22.10
2022-08-28T04:33:25.994Z,22.10
2022-08-28T04:35:54.717Z,22.10
2022-08-28T04:38:23.616Z,22.10
2022-08-28T04:40:51.789Z,22.10
2022-08-28T04:43:21.236Z,22.10
2022-08-28T04:45:49.483Z,22.00
2022-08-28T04:48:17.829Z,22.00
2022-08-28T04:50:47.880Z,22.00
2022-08-28T04:53:18.177Z,22.00
2022-08-28T04:55:54.375Z,22.10
2022-08-28T04:58:24.564Z,22.10
2022-08-28T05:00:54.583Z,22.10
2022-08-28T05:03:23.255Z,22.10
2022-08-28T05:05:53.279Z,22.10
2022-08-28T05:08:26.947Z,22.10
2022-08-28T05:10:56.068Z,22.10
2022-08-28T05:13:28.168Z,22.20
2022-08-28T05:15:56.370Z,22.20
2022-08-28T05:18:25.522Z,22.30
2022-08-28T05:20:53.899Z,22.30
2022-08-28T05:23:25.773Z,22.30
2022-08-28T05:25:55.270Z,22.40
2022-08-28T05:28:25.250Z,22.40
2022-08-28T05:30:54.834Z,22.40
2022-08-28T05:33:23.298Z,22.50
2022-08-28T05:35:51.443Z,22.50
2022-08-28T05:38:20.337Z,22.60
2022-08-28T05:40:49.939Z,22.60
2022-08-28T05:43:19.147Z,22.70
2022-08-28T05:45:47.293Z,22.70
2022-08-28T05:48:16.767Z,22.80
2022-08-28T05:50:47.685Z,22.80
2022-08-28T05:53:17.561Z,22.90
2022-08-28T05:55:51.684Z,23.00
2022-08-28T05:58:34.635Z,23.00
2022-08-28T06:01:11.436Z,23.10
2022-08-28T06:03:42.627Z,23.10
2022-08-28T06:06:12.762Z,23.20
2022-08-28T06:08:56.414Z,23.20
2022-08-28T06:11:30.597Z,23.30
2022-08-28T06:14:01.557Z,23.40
2022-08-28T06:16:30.943Z,23.50
2022-08-28T06:19:00.941Z,23.60
2022-08-28T06:21:29.252Z,23.70
2022-08-28T06:23:57.944Z,23.70
2022-08-28T06:26:26.290Z,23.80
2022-08-28T06:28:55.072Z,23.80
2022-08-28T06:31:26.454Z,23.90
2022-08-28T06:33:56.304Z,23.90
2022-08-28T06:36:27.327Z,24.00
2022-08-28T06:38:58.106Z,24.00
2022-08-28T06:41:27.342Z,24.00
2022-08-28T06:43:55.856Z,24.10
2022-08-28T06:46:25.067Z,24.10
2022-08-28T06:48:53.372Z,24.20
2022-08-28T06:51:24.898Z,24.20
2022-08-28T06:53:54.675Z,24.30
2022-08-28T06:56:26.067Z,24.30
2022-08-28T06:58:57.373Z,24.40
2022-08-28T07:01:29.125Z,24.40
2022-08-28T07:04:00.166Z,24.50
2022-08-28T07:06:31.974Z,24.50
2022-08-28T07:09:01.700Z,24.50
2022-08-28T07:11:32.452Z,24.60
2022-08-28T07:14:01.529Z,24.60
2022-08-28T07:16:32.635Z,24.70
2022-08-28T07:19:03.706Z,24.70
2022-08-28T07:21:32.679Z,24.80
2022-08-28T07:24:06.985Z,24.80
2022-08-28T07:26:35.749Z,24.90
2022-08-28T07:29:09.852Z,24.90
2022-08-28T07:31:41.295Z,25.00
2022-08-28T07:34:10.757Z,25.00
2022-08-28T07:36:39.573Z,25.20
2022-08-28T07:39:10.583Z,25.20
2022-08-28T07:41:42.518Z,25.30
2022-08-28T07:44:32.292Z,25.30
2022-08-28T07:47:04.055Z,25.30
2022-08-28T07:49:33.705Z,25.40
2022-08-28T07:52:02.002Z,25.40
2022-08-28T07:54:31.573Z,25.50
2022-08-28T07:56:59.708Z,25.60
2022-08-28T07:59:31.635Z,25.70
2022-08-28T08:02:03.462Z,25.70
2022-08-28T08:04:31.856Z,25.80
2022-08-28T08:06:59.945Z,25.90
2022-08-28T08:09:28.673Z,26.00
2022-08-28T08:11:58.740Z,26.10
2022-08-28T08:14:27.126Z,26.20
2022-08-28T08:16:55.371Z,26.30
2022-08-28T08:19:23.595Z,26.30
2022-08-28T08:21:55.264Z,26.40
2022-08-28T08:24:26.384Z,26.50
2022-08-28T08:27:00.785Z,26.60
2022-08-28T08:29:32.351Z,26.60
2022-08-28T08:32:06.940Z,26.70
2022-08-28T08:34:38.623Z,26.80
2022-08-28T08:37:07.201Z,26.90
2022-08-28T08:39:36.745Z,27.00
2022-08-28T08:42:11.291Z,27.10
2022-08-28T08:44:42.329Z,27.20
2022-08-28T08:47:17.124Z,27.30
2022-08-28T08:49:52.351Z,27.40
2022-08-28T08:52:36.060Z,27.40
2022-08-28T08:55:24.355Z,27.50
2022-08-28T08:58:00.177Z,27.60
2022-08-28T09:00:29.429Z,27.60
2022-08-28T09:03:05.872Z,27.70
2022-08-28T09:05:43.921Z,27.70
2022-08-28T09:08:22.844Z,27.70
2022-08-28T09:11:04.695Z,27.80
2022-08-28T09:13:45.619Z,27.90
2022-08-28T09:16:27.524Z,28.00
2022-08-28T09:18:58.023Z,28.10
2022-08-28T09:21:29.593Z,28.20
2022-08-28T09:24:01.292Z,28.30
2022-08-28T09:26:34.210Z,28.40
2022-08-28T09:29:06.900Z,28.50
2022-08-28T09:31:37.480Z,28.60
2022-08-28T09:34:22.821Z,28.80
2022-08-28T09:36:51.687Z,29.00
2022-08-28T09:39:22.083Z,29.20
2022-08-28T09:42:15.880Z,29.40
2022-08-28T09:45:02.072Z,29.50
2022-08-28T09:47:49.671Z,29.70
2022-08-28T09:50:31.551Z,29.90
2022-08-28T09:53:14.020Z,30.10
2022-08-28T09:55:51.780Z,30.30
2022-08-28T09:58:22.640Z,30.60
2022-08-28T10:00:58.124Z,30.80
2022-08-28T10:03:31.256Z,31.00
2022-08-28T10:06:07.861Z,31.20
2022-08-28T10:08:50.568Z,31.50
2022-08-28T10:11:26.435Z,31.80
2022-08-28T10:14:07.983Z,32.00
2022-08-28T10:16:48.235Z,32.20
2022-08-28T10:19:29.450Z,32.40
2022-08-28T10:22:09.547Z,32.60
2022-08-28T10:24:58.460Z,32.70
2022-08-28T10:27:45.340Z,32.90
2022-08-28T10:30:17.587Z,33.20
2022-08-28T10:33:18.196Z,33.40
2022-08-28T10:35:54.664Z,33.70
2022-08-28T10:38:31.598Z,34.00
2022-08-28T10:41:04.235Z,34.30
2022-08-28T10:43:37.158Z,34.60
2022-08-28T10:46:11.006Z,34.80
2022-08-28T10:48:46.286Z,35.00
2022-08-28T10:51:34.934Z,35.30
2022-08-28T10:54:08.798Z,35.40
2022-08-28T10:56:41.282Z,35.50
2022-08-28T10:59:09.360Z,35.80
2022-08-28T11:01:41.127Z,36.00
2022-08-28T11:04:23.448Z,36.30
2022-08-28T11:06:58.347Z,36.50
2022-08-28T11:09:34.396Z,36.90
2022-08-28T11:12:06.964Z,37.30
2022-08-28T11:14:47.606Z,37.50
2022-08-28T11:17:39.893Z,37.80
2022-08-28T11:20:16.563Z,38.10
2022-08-28T11:22:50.719Z,38.40
2022-08-28T11:25:26.705Z,38.50
2022-08-28T11:28:19.476Z,38.50
2022-08-28T11:30:49.665Z,38.60
2022-08-28T11:33:40.193Z,38.90
2022-08-28T11:36:12.835Z,39.10
2022-08-28T11:39:07.536Z,39.30
2022-08-28T11:41:38.593Z,39.60
2022-08-28T11:44:41.265Z,39.70
2022-08-28T11:47:35.756Z,39.90
2022-08-28T11:50:13.261Z,40.20
2022-08-28T11:53:01.004Z,40.30
2022-08-28T11:55:45.893Z,40.30
2022-08-28T11:58:22.712Z,40.20
2022-08-28T12:00:56.198Z,40.30
2022-08-28T12:03:29.816Z,40.50
2022-08-28T12:05:59.368Z,40.50
2022-08-28T12:09:10.281Z,40.50
2022-08-28T12:11:58.140Z,40.60
2022-08-28T12:15:07.574Z,40.90
2022-08-28T12:17:50.271Z,41.00
2022-08-28T12:20:34.850Z,41.20
2022-08-28T12:23:06.477Z,41.40
2022-08-28T12:25:39.282Z,41.50
2022-08-28T12:28:20.730Z,41.60
2022-08-28T12:30:58.292Z,41.50
2022-08-28T12:33:34.679Z,41.30
2022-08-28T12:36:05.687Z,41.10
2022-08-28T12:38:35.427Z,40.90
2022-08-28T12:41:04.441Z,40.70
2022-08-28T12:43:40.929Z,40.40
2022-08-28T12:46:19.493Z,40.00
2022-08-28T12:48:53.620Z,39.40
2022-08-28T12:51:23.535Z,38.90
2022-08-28T12:53:54.014Z,38.60
2022-08-28T12:56:23.637Z,38.20
2022-08-28T12:58:53.690Z,37.60
2022-08-28T13:01:29.192Z,37.10
2022-08-28T13:04:01.099Z,36.60
2022-08-28T13:06:31.503Z,36.20
2022-08-28T13:09:02.420Z,35.80
2022-08-28T13:11:34.852Z,35.50
2022-08-28T13:14:05.229Z,35.30
2022-08-28T13:16:40.803Z,35.10
2022-08-28T13:19:22.791Z,34.90
2022-08-28T13:22:00.441Z,34.70
2022-08-28T13:24:46.785Z,34.50
2022-08-28T13:27:24.459Z,34.30
2022-08-28T13:30:02.787Z,34.20
2022-08-28T13:32:31.778Z,34.10
2022-08-28T13:35:29.456Z,33.90
2022-08-28T13:38:00.048Z,33.80
2022-08-28T13:40:56.510Z,33.60
2022-08-28T13:43:19.413Z,33.50
2022-08-28T13:45:50.937Z,33.40
2022-08-28T13:48:21.232Z,33.20
2022-08-28T13:50:52.442Z,33.10
2022-08-28T13:53:22.433Z,33.00
2022-08-28T13:55:51.820Z,32.90
2022-08-28T13:58:20.535Z,32.80
2022-08-28T14:00:51.820Z,32.70
2022-08-28T14:03:38.781Z,32.60
2022-08-28T14:06:09.280Z,32.50
2022-08-28T14:08:37.423Z,32.50
2022-08-28T14:11:07.257Z,32.40
2022-08-28T14:13:35.940Z,32.40
2022-08-28T14:16:08.728Z,32.30
2022-08-28T14:18:37.021Z,32.20
2022-08-28T14:21:07.252Z,32.20
2022-08-28T14:23:35.841Z,32.10
2022-08-28T14:26:06.081Z,32.00
2022-08-28T14:28:34.182Z,31.90
2022-08-28T14:31:02.311Z,31.80
2022-08-28T14:33:32.406Z,31.80
2022-08-28T14:36:05.613Z,31.70
2022-08-28T14:38:33.792Z,31.70
2022-08-28T14:41:02.898Z,31.60
2022-08-28T14:43:31.618Z,31.50
2022-08-28T14:46:00.528Z,31.40
2022-08-28T14:48:29.291Z,31.30
2022-08-28T14:50:59.095Z,31.20
2022-08-28T14:53:27.213Z,31.10
2022-08-28T14:55:55.328Z,31.00
2022-08-28T14:58:23.546Z,30.90
2022-08-28T15:00:53.005Z,30.80
2022-08-28T15:03:22.424Z,30.70
2022-08-28T15:06:02.556Z,30.50
2022-08-28T15:08:31.354Z,30.50
2022-08-28T15:10:59.549Z,30.30
2022-08-28T15:13:31.519Z,30.10
2022-08-28T15:16:03.930Z,30.10
2022-08-28T15:18:32.216Z,29.90
2022-08-28T15:21:00.512Z,29.90
2022-08-28T15:23:30.713Z,29.80
2022-08-28T15:26:00.126Z,29.70
2022-08-28T15:28:28.247Z,29.70
2022-08-28T15:30:56.329Z,29.50
2022-08-28T15:33:24.482Z,29.50
2022-08-28T15:35:56.570Z,29.40
2022-08-28T15:38:24.947Z,29.30
2022-08-28T15:41:11.995Z,29.30
2022-08-28T15:43:40.096Z,29.30
2022-08-28T15:46:15.878Z,29.20
2022-08-28T15:48:44.119Z,29.10
2022-08-28T15:51:12.324Z,29.10
2022-08-28T15:53:40.400Z,29.00
2022-08-28T15:56:10.264Z,29.00
2022-08-28T15:58:39.639Z,28.90
2022-08-28T16:01:08.406Z,28.90
2022-08-28T16:03:37.143Z,28.80
2022-08-28T16:06:11.921Z,28.80
2022-08-28T16:08:40.793Z,28.70
2022-08-28T16:11:11.792Z,28.60
2022-08-28T16:13:40.601Z,28.60
2022-08-28T16:16:08.997Z,28.60
2022-08-28T16:18:37.193Z,28.50
2022-08-28T16:21:05.896Z,28.50
2022-08-28T16:23:34.800Z,28.40
2022-08-28T16:26:03.920Z,28.40
2022-08-28T16:28:34.924Z,28.40
2022-08-28T16:31:08.139Z,28.30
2022-08-28T16:33:47.497Z,28.20
2022-08-28T16:36:16.894Z,28.20
2022-08-28T16:38:46.595Z,28.10
2022-08-28T16:41:16.738Z,28.10
2022-08-28T16:43:47.211Z,28.10
2022-08-28T16:46:18.583Z,28.00
2022-08-28T16:48:47.324Z,28.00
2022-08-28T16:51:16.886Z,28.00
2022-08-28T16:53:45.043Z,28.00
2022-08-28T16:56:14.892Z,28.00
2022-08-28T16:58:46.043Z,27.90
2022-08-28T17:01:14.693Z,27.90
2022-08-28T17:03:44.133Z,27.90
2022-08-28T17:06:15.070Z,27.80
2022-08-28T17:08:43.906Z,27.80
2022-08-28T17:11:12.275Z,27.80
2022-08-28T17:13:40.774Z,27.70
2022-08-28T17:16:11.128Z,27.70
2022-08-28T17:18:40.757Z,27.70
2022-08-28T17:21:34.392Z,27.60
2022-08-28T17:24:02.873Z,27.60
2022-08-28T17:26:31.046Z,27.60
2022-08-28T17:28:59.323Z,27.50
2022-08-28T17:31:29.001Z,27.50
2022-08-28T17:33:57.111Z,27.50
2022-08-28T17:36:33.558Z,27.50
2022-08-28T17:39:03.252Z,27.40
2022-08-28T17:41:31.594Z,27.40
2022-08-28T17:44:01.339Z,27.40
2022-08-28T17:46:35.396Z,27.40
2022-08-28T17:49:07.187Z,27.30
2022-08-28T17:51:42.892Z,27.30
2022-08-28T17:54:12.961Z,27.30
2022-08-28T17:56:41.348Z,27.20
2022-08-28T17:59:10.041Z,27.20
2022-08-28T18:01:40.097Z,27.10
2022-08-28T18:04:08.964Z,27.10
2022-08-28T18:06:37.863Z,27.00
2022-08-28T18:09:06.974Z,27.00
2022-08-28T18:11:35.120Z,26.90
2022-08-28T18:14:03.268Z,26.90
2022-08-28T18:16:33.373Z,26.90
2022-08-28T18:19:04.635Z,26.90
2022-08-28T18:21:32.868Z,26.80
2022-08-28T18:24:01.213Z,26.80
2022-08-28T18:26:29.416Z,26.80
2022-08-28T18:28:57.700Z,26.70
2022-08-28T18:31:26.564Z,26.70
2022-08-28T18:33:55.268Z,26.60
2022-08-28T18:36:24.780Z,26.60
2022-08-28T18:38:53.769Z,26.50
2022-08-28T18:41:28.640Z,26.50
2022-08-28T18:44:10.815Z,26.50
2022-08-28T18:46:39.001Z,26.50
2022-08-28T18:49:07.187Z,26.50
2022-08-28T18:51:37.072Z,26.40
2022-08-28T18:54:05.498Z,26.40
2022-08-28T18:56:36.063Z,26.40
2022-08-28T18:59:06.772Z,26.40
2022-08-28T19:01:35.157Z,26.40
2022-08-28T19:04:03.774Z,26.30
2022-08-28T19:06:32.185Z,26.30
2022-08-28T19:09:01.741Z,26.20
2022-08-28T19:11:31.408Z,26.20
2022-08-28T19:13:59.671Z,26.10
2022-08-28T19:16:33.122Z,26.10
2022-08-28T19:19:02.176Z,26.10
2022-08-28T19:21:30.612Z,26.00
2022-08-28T19:23:58.832Z,26.10
2022-08-28T19:26:29.345Z,26.00
2022-08-28T19:28:58.096Z,26.00
2022-08-28T19:31:27.539Z,26.00
2022-08-28T19:33:58.227Z,26.00
2022-08-28T19:36:27.380Z,26.00
2022-08-28T19:38:55.595Z,26.00
2022-08-28T19:41:24.154Z,25.90
2022-08-28T19:43:53.627Z,25.90
2022-08-28T19:46:21.830Z,25.90
2022-08-28T19:48:50.422Z,25.80
2022-08-28T19:51:23.514Z,25.80
2022-08-28T19:53:57.953Z,25.90
2022-08-28T19:56:28.394Z,25.80
2022-08-28T19:58:59.456Z,25.80
2022-08-28T20:01:29.882Z,25.80
2022-08-28T20:03:58.862Z,25.80
2022-08-28T20:06:27.651Z,25.70
2022-08-28T20:08:55.946Z,25.70
2022-08-28T20:11:30.271Z,25.70
2022-08-28T20:14:04.242Z,25.70
2022-08-28T20:16:35.155Z,25.70
2022-08-28T20:19:03.983Z,25.60
2022-08-28T20:21:37.117Z,25.60
2022-08-28T20:24:07.313Z,25.60
2022-08-28T20:26:35.629Z,25.60
2022-08-28T20:29:06.380Z,25.60
2022-08-28T20:31:35.037Z,25.60
2022-08-28T20:34:03.158Z,25.50
2022-08-28T20:36:31.273Z,25.50
2022-08-28T20:39:00.053Z,25.50
2022-08-28T20:41:28.440Z,25.50
2022-08-28T20:43:56.975Z,25.60
2022-08-28T20:46:26.600Z,25.60
2022-08-28T20:48:54.885Z,25.60
2022-08-28T20:51:43.015Z,25.50
2022-08-28T20:54:11.784Z,25.50
2022-08-28T20:56:40.013Z,25.60
2022-08-28T20:59:08.702Z,25.40
2022-08-28T21:01:38.268Z,25.40
2022-08-28T21:04:06.826Z,25.40
2022-08-28T21:06:35.203Z,25.40
2022-08-28T21:09:03.355Z,25.30
2022-08-28T21:11:31.523Z,25.30
2022-08-28T21:13:59.604Z,25.30
2022-08-28T21:16:27.835Z,25.30
2022-08-28T21:19:15.111Z,25.30
2022-08-28T21:21:45.334Z,25.20
2022-08-28T21:24:15.891Z,25.20
2022-08-28T21:26:44.988Z,25.20
2022-08-28T21:29:15.110Z,25.10
2022-08-28T21:31:44.663Z,25.10
2022-08-28T21:34:14.264Z,25.10
2022-08-28T21:36:49.522Z,25.00
2022-08-28T21:39:20.643Z,25.00
2022-08-28T21:41:49.587Z,25.00
2022-08-28T21:44:18.432Z,25.00
2022-08-28T21:46:46.760Z,25.00
2022-08-28T21:49:16.260Z,25.00
2022-08-28T21:51:44.403Z,25.00
2022-08-28T21:54:12.619Z,25.00
2022-08-28T21:56:41.065Z,25.00
2022-08-28T21:59:09.233Z,25.00
2022-08-28T22:01:37.435Z,25.00
2022-08-28T22:04:06.300Z,25.00
2022-08-28T22:06:35.856Z,24.90
2022-08-28T22:09:06.098Z,24.90
2022-08-28T22:11:34.683Z,24.90
2022-08-28T22:14:02.810Z,24.90
2022-08-28T22:16:31.563Z,24.90
2022-08-28T22:18:59.800Z,24.80
2022-08-28T22:21:45.725Z,24.70
2022-08-28T22:24:16.408Z,24.70
2022-08-28T22:26:45.121Z,24.70
2022-08-28T22:29:13.472Z,24.70
2022-08-28T22:31:45.821Z,24.70
2022-08-28T22:34:14.772Z,24.70
2022-08-28T22:36:42.971Z,24.70
2022-08-28T22:39:11.211Z,24.70
2022-08-28T22:41:40.790Z,24.70
2022-08-28T22:44:09.128Z,24.60
2022-08-28T22:46:37.339Z,24.60
2022-08-28T22:49:05.974Z,24.50
2022-08-28T22:51:35.489Z,24.50
2022-08-28T22:54:03.750Z,24.50
2022-08-28T22:56:31.921Z,24.50
2022-08-28T22:59:01.478Z,24.50
2022-08-28T23:01:30.160Z,24.50
2022-08-28T23:04:01.338Z,24.50
2022-08-28T23:06:30.323Z,24.40
2022-08-28T23:08:58.963Z,24.40
2022-08-28T23:11:27.180Z,24.30
2022-08-28T23:13:55.302Z,24.30
2022-08-28T23:16:24.906Z,24.30
2022-08-28T23:19:09.283Z,24.30
2022-08-28T23:21:40.784Z,24.30
2022-08-28T23:24:12.715Z,24.30
2022-08-28T23:26:41.303Z,24.30
2022-08-28T23:29:09.717Z,24.30
2022-08-28T23:31:40.557Z,24.20
2022-08-28T23:34:08.891Z,24.20
2022-08-28T23:36:39.354Z,24.10
2022-08-28T23:39:11.294Z,24.10
2022-08-28T23:41:39.606Z,24.10
2022-08-28T23:44:09.283Z,24.10
2022-08-28T23:46:41.119Z,24.10
2022-08-28T23:49:10.464Z,24.10
2022-08-28T23:51:38.914Z,24.10
2022-08-28T23:54:07.707Z,24.10
2022-08-28T23:56:36.539Z,24.00
2022-08-28T23:59:04.992Z,24.00
